createdAt,value
2017-05-09T00:00:16.835Z,3.32
2017-05-09T00:02:45.731Z,3.22
2017-05-09T00:05:14.403Z,3.00
2017-05-09T00:07:42.378Z,2.90
2017-05-09T00:10:10.682Z,3.40
2017-05-09T00:12:38.618Z,2.78
2017-05-09T00:15:07.015Z,3.12
2017-05-09T00:17:34.943Z,3.44
2017-05-09T00:20:03.250Z,3.18
2017-05-09T00:22:31.230Z,3.50
2017-05-09T00:24:59.154Z,3.52
2017-05-09T00:27:27.455Z,3.22
2017-05-09T00:29:55.804Z,3.18
2017-05-09T00:32:24.850Z,2.88
2017-05-09T00:34:53.747Z,3.66
2017-05-09T00:37:22.973Z,3.84
2017-05-09T00:39:51.888Z,3.90
2017-05-09T00:42:20.591Z,3.86
2017-05-09T00:44:49.098Z,3.68
2017-05-09T00:47:17.490Z,3.66
2017-05-09T00:49:45.424Z,3.28
2017-05-09T00:52:14.782Z,3.50
2017-05-09T00:54:43.657Z,3.30
2017-05-09T00:57:11.958Z,3.96
2017-05-09T00:59:40.711Z,3.28
2017-05-09T01:02:09.015Z,3.24
2017-05-09T01:04:37.700Z,3.62
2017-05-09T01:07:06.035Z,4.70
2017-05-09T01:09:34.478Z,3.14
2017-05-09T01:12:03.518Z,3.20
2017-05-09T01:14:32.230Z,3.20
2017-05-09T01:17:01.119Z,4.18
2017-05-09T01:19:30.156Z,3.32
2017-05-09T01:21:58.483Z,3.78
2017-05-09T01:24:26.782Z,4.26
2017-05-09T01:26:55.087Z,3.42
2017-05-09T01:29:23.435Z,3.90
2017-05-09T01:31:51.387Z,3.88
2017-05-09T01:34:20.451Z,3.80
2017-05-09T01:36:48.454Z,3.84
2017-05-09T01:39:16.388Z,3.60
2017-05-09T01:41:45.431Z,4.70
2017-05-09T01:44:13.767Z,3.94
2017-05-09T01:46:42.071Z,3.88
2017-05-09T01:49:11.379Z,4.26
2017-05-09T01:51:40.456Z,3.80
2017-05-09T01:54:09.499Z,4.36
2017-05-09T01:56:38.199Z,3.34
2017-05-09T01:59:07.155Z,4.76
2017-05-09T02:01:36.057Z,3.42
2017-05-09T02:04:04.371Z,3.60
2017-05-09T02:06:32.719Z,4.94
2017-05-09T02:09:01.759Z,4.12
2017-05-09T02:11:30.649Z,4.10
2017-05-09T02:13:59.353Z,3.44
2017-05-09T02:16:28.387Z,4.34
2017-05-09T02:18:56.313Z,4.38
2017-05-09T02:21:25.030Z,5.00
2017-05-09T02:23:53.417Z,5.22
2017-05-09T02:26:21.730Z,3.84
2017-05-09T02:28:50.831Z,5.00
2017-05-09T02:31:19.139Z,4.92
2017-05-09T02:33:47.834Z,4.35
2017-05-09T02:36:16.765Z,5.12
2017-05-09T02:38:45.803Z,5.48
2017-05-09T02:41:13.731Z,5.77
2017-05-09T02:43:42.074Z,5.32
2017-05-09T02:46:10.379Z,5.72
2017-05-09T02:48:39.272Z,4.84
2017-05-09T02:51:08.118Z,4.76
2017-05-09T02:53:37.167Z,4.68
2017-05-09T02:56:06.211Z,4.15
2017-05-09T02:58:34.184Z,5.20
2017-05-09T03:01:02.862Z,5.28
2017-05-09T03:03:31.164Z,4.37
2017-05-09T03:06:00.093Z,4.66
2017-05-09T03:08:28.394Z,4.56
2017-05-09T03:10:56.699Z,4.07
2017-05-09T03:13:24.913Z,4.07
2017-05-09T03:15:53.604Z,5.35
2017-05-09T03:18:21.951Z,5.12
2017-05-09T03:20:50.903Z,5.58
2017-05-09T03:23:19.226Z,4.53
2017-05-09T03:25:47.933Z,5.53
2017-05-09T03:28:16.279Z,5.42
2017-05-09T03:30:44.579Z,5.03
2017-05-09T03:33:12.883Z,6.90
2017-05-09T03:35:40.850Z,4.12
2017-05-09T03:38:09.738Z,5.72
2017-05-09T03:40:38.036Z,4.98
2017-05-09T03:43:06.379Z,4.35
2017-05-09T03:45:35.051Z,3.83
2017-05-09T03:48:03.939Z,4.48
2017-05-09T03:50:32.275Z,4.42
2017-05-09T03:53:00.595Z,4.15
2017-05-09T03:55:29.634Z,3.85
2017-05-09T03:57:57.969Z,4.03
2017-05-09T04:00:26.867Z,4.97
2017-05-09T04:02:55.546Z,5.45
2017-05-09T04:05:23.909Z,4.58
2017-05-09T04:07:52.228Z,4.83
2017-05-09T04:10:20.174Z,4.73
2017-05-09T04:12:48.565Z,5.20
2017-05-09T04:15:16.519Z,4.87
2017-05-09T04:17:44.822Z,4.23
2017-05-09T04:20:13.746Z,4.95
2017-05-09T04:22:42.043Z,4.92
2017-05-09T04:25:10.713Z,4.02
2017-05-09T04:27:39.416Z,5.13
2017-05-09T04:30:08.091Z,6.77
2017-05-09T04:32:37.144Z,4.85
2017-05-09T04:35:05.491Z,4.60
2017-05-09T04:37:33.788Z,4.90
2017-05-09T04:40:02.841Z,5.65
2017-05-09T04:42:31.167Z,4.12
2017-05-09T04:44:59.469Z,4.68
2017-05-09T04:47:28.133Z,5.35
2017-05-09T04:49:57.063Z,5.25
2017-05-09T04:52:26.102Z,4.93
2017-05-09T04:54:54.411Z,4.88
2017-05-09T04:57:22.758Z,6.20
2017-05-09T04:59:50.714Z,6.48
2017-05-09T05:02:19.038Z,6.32
2017-05-09T05:04:47.767Z,5.45
2017-05-09T05:07:16.071Z,6.80
2017-05-09T05:09:43.994Z,5.53
2017-05-09T05:12:12.322Z,5.83
2017-05-09T05:14:40.251Z,6.33
2017-05-09T05:17:08.200Z,6.20
2017-05-09T05:19:36.551Z,5.43
2017-05-09T05:22:04.855Z,6.38
2017-05-09T05:24:33.159Z,6.20
2017-05-09T05:27:01.503Z,7.32
2017-05-09T05:29:29.438Z,5.95
2017-05-09T05:31:57.738Z,6.60
2017-05-09T05:34:26.760Z,7.12
2017-05-09T05:36:55.434Z,6.22
2017-05-09T05:39:23.755Z,6.82
2017-05-09T05:41:52.702Z,7.50
2017-05-09T05:44:21.764Z,6.77
2017-05-09T05:46:49.707Z,5.87
2017-05-09T05:49:17.734Z,7.85
2017-05-09T05:51:46.821Z,6.85
2017-05-09T05:54:15.871Z,6.48
2017-05-09T05:56:44.479Z,7.64
2017-05-09T05:59:12.402Z,8.36
2017-05-09T06:01:41.074Z,8.70
2017-05-09T06:04:09.442Z,11.80
2017-05-09T06:06:37.762Z,15.44
2017-05-09T06:09:06.665Z,14.60
2017-05-09T06:11:35.682Z,14.76
2017-05-09T06:14:04.584Z,18.10
2017-05-09T06:16:32.891Z,16.48
2017-05-09T06:19:01.826Z,14.60
2017-05-09T06:21:30.499Z,17.52
2017-05-09T06:23:59.542Z,11.70
2017-05-09T06:26:27.884Z,10.94
2017-05-09T06:28:56.182Z,9.32
2017-05-09T06:31:25.066Z,7.42
2017-05-09T06:33:54.159Z,8.12
2017-05-09T06:36:22.473Z,6.72
2017-05-09T06:38:50.814Z,6.10
2017-05-09T06:41:19.540Z,7.02
2017-05-09T06:43:48.611Z,7.02
2017-05-09T06:46:17.887Z,6.16
2017-05-09T06:48:46.851Z,7.54
2017-05-09T06:51:15.155Z,6.18
2017-05-09T06:53:43.459Z,8.10
2017-05-09T06:56:12.379Z,6.32
2017-05-09T06:58:41.050Z,7.98
2017-05-09T07:01:09.922Z,6.68
2017-05-09T07:03:38.279Z,7.44
2017-05-09T07:06:06.595Z,8.30
2017-05-09T07:08:35.498Z,9.30
2017-05-09T07:11:04.080Z,9.06
2017-05-09T07:13:32.379Z,8.52
2017-05-09T07:16:01.259Z,7.24
2017-05-09T07:18:30.326Z,6.66
2017-05-09T07:20:58.624Z,7.10
2017-05-09T07:23:26.923Z,9.58
2017-05-09T07:25:55.275Z,8.78
2017-05-09T07:28:23.595Z,10.88
2017-05-09T07:30:52.504Z,9.78
2017-05-09T07:33:21.434Z,9.12
2017-05-09T07:35:50.495Z,8.72
2017-05-09T07:38:19.572Z,8.76
2017-05-09T07:40:48.370Z,5.86
2017-05-09T07:43:17.054Z,6.14
2017-05-09T07:45:45.935Z,6.00
2017-05-09T07:48:15.070Z,6.78
2017-05-09T07:50:43.358Z,5.90
2017-05-09T07:53:12.237Z,4.20
2017-05-09T07:55:41.154Z,4.70
2017-05-09T07:58:09.455Z,5.28
2017-05-09T08:00:37.769Z,6.38
2017-05-09T08:03:06.125Z,4.50
2017-05-09T08:05:34.415Z,4.58
2017-05-09T08:08:02.710Z,5.48
2017-05-09T08:10:31.491Z,5.84
2017-05-09T08:13:00.379Z,7.82
2017-05-09T08:15:29.046Z,7.00
2017-05-09T08:17:57.971Z,8.48
2017-05-09T08:20:26.855Z,6.62
2017-05-09T08:22:55.890Z,6.22
2017-05-09T08:25:24.823Z,6.48
2017-05-09T08:27:53.122Z,6.66
2017-05-09T08:30:22.006Z,7.02
2017-05-09T08:32:51.115Z,7.02
2017-05-09T08:35:19.442Z,7.08
2017-05-09T08:37:48.338Z,9.26
2017-05-09T08:40:16.679Z,8.50
2017-05-09T08:42:45.719Z,9.46
2017-05-09T08:45:14.013Z,7.90
2017-05-09T08:47:41.986Z,5.86
2017-05-09T08:50:10.286Z,4.30
2017-05-09T08:52:38.590Z,3.48
2017-05-09T08:55:06.694Z,3.26
2017-05-09T08:57:34.981Z,3.92
2017-05-09T09:00:03.287Z,3.16
2017-05-09T09:02:31.627Z,3.30
2017-05-09T09:05:00.658Z,4.78
2017-05-09T09:07:28.579Z,4.30
2017-05-09T09:09:56.907Z,3.10
2017-05-09T09:12:24.831Z,2.38
2017-05-09T09:14:53.153Z,3.24
2017-05-09T09:17:21.147Z,3.18
2017-05-09T09:19:49.140Z,2.98
2017-05-09T09:22:17.475Z,3.26
2017-05-09T09:24:46.148Z,2.76
2017-05-09T09:30:08.199Z,2.82
2017-05-09T09:32:36.610Z,3.34
2017-05-09T09:35:04.539Z,2.26
2017-05-09T09:37:32.883Z,3.44
2017-05-09T09:40:00.810Z,3.06
2017-05-09T09:42:29.267Z,3.40
2017-05-09T09:44:57.855Z,4.00
2017-05-09T09:47:26.528Z,3.58
2017-05-09T09:49:54.818Z,4.02
2017-05-09T09:52:22.792Z,3.72
2017-05-09T09:54:50.727Z,4.44
2017-05-09T09:57:19.046Z,3.76
2017-05-09T09:59:47.022Z,4.80
2017-05-09T10:02:14.950Z,5.42
2017-05-09T10:04:43.827Z,5.10
2017-05-09T10:07:12.238Z,5.94
2017-05-09T10:09:40.532Z,4.70
2017-05-09T10:12:08.836Z,4.94
2017-05-09T10:14:38.047Z,4.88
2017-05-09T10:17:06.335Z,5.18
2017-05-09T10:19:34.652Z,5.50
2017-05-09T10:22:03.566Z,4.38
2017-05-09T10:24:32.441Z,4.28
2017-05-09T10:27:00.359Z,3.44
2017-05-09T10:29:28.358Z,5.60
2017-05-09T10:31:56.651Z,4.00
2017-05-09T10:34:24.579Z,4.28
2017-05-09T10:36:52.950Z,6.06
2017-05-09T10:39:21.627Z,5.00
2017-05-09T10:41:49.937Z,5.08
2017-05-09T10:44:19.057Z,4.52
2017-05-09T10:46:47.726Z,4.36
2017-05-09T10:49:16.023Z,4.42
2017-05-09T10:51:44.344Z,5.12
2017-05-09T10:54:12.639Z,4.26
2017-05-09T10:56:41.523Z,4.14
2017-05-09T10:59:10.223Z,4.90
2017-05-09T11:01:38.528Z,4.54
2017-05-09T11:04:06.838Z,4.44
2017-05-09T11:06:35.178Z,4.78
2017-05-09T11:09:04.051Z,4.98
2017-05-09T11:11:32.348Z,3.44
2017-05-09T11:14:00.783Z,3.18
2017-05-09T11:16:29.658Z,3.48
2017-05-09T11:18:58.688Z,3.26
2017-05-09T11:21:26.671Z,3.10
2017-05-09T11:23:55.327Z,3.66
2017-05-09T11:26:23.627Z,3.18
2017-05-09T11:28:52.554Z,3.98
2017-05-09T11:31:21.240Z,4.32
2017-05-09T11:33:49.549Z,5.38
2017-05-09T11:36:19.070Z,5.68
2017-05-09T11:38:47.967Z,4.72
2017-05-09T11:41:16.280Z,5.26
2017-05-09T11:43:44.651Z,4.02
2017-05-09T11:46:12.574Z,3.92
2017-05-09T11:48:40.864Z,4.92
2017-05-09T11:51:09.223Z,3.70
2017-05-09T11:53:38.271Z,4.52
2017-05-09T11:56:06.209Z,4.20
2017-05-09T11:58:34.565Z,3.40
2017-05-09T12:01:03.232Z,3.78
2017-05-09T12:03:31.523Z,2.88
2017-05-09T12:05:59.978Z,2.68
2017-05-09T12:08:28.639Z,3.42
2017-05-09T12:10:56.934Z,3.00
2017-05-09T12:13:26.018Z,3.18
2017-05-09T12:15:54.311Z,3.30
2017-05-09T12:18:22.615Z,2.40
2017-05-09T12:20:51.557Z,3.20
2017-05-09T12:23:19.496Z,2.62
2017-05-09T12:25:47.420Z,2.94
2017-05-09T12:28:16.495Z,3.34
2017-05-09T12:30:44.790Z,3.70
2017-05-09T12:33:13.074Z,3.10
2017-05-09T12:35:41.402Z,3.10
2017-05-09T12:38:10.067Z,3.62
2017-05-09T12:40:38.387Z,3.78
2017-05-09T12:43:07.108Z,3.44
2017-05-09T12:45:35.415Z,3.64
2017-05-09T12:48:03.712Z,3.94
2017-05-09T12:50:32.791Z,3.08
2017-05-09T12:53:00.717Z,3.22
2017-05-09T12:55:29.006Z,3.62
2017-05-09T12:57:58.094Z,3.60
2017-05-09T13:00:26.970Z,3.08
2017-05-09T13:02:56.003Z,3.68
2017-05-09T13:05:25.239Z,3.72
2017-05-09T13:07:53.534Z,3.30
2017-05-09T13:10:22.406Z,3.72
2017-05-09T13:12:50.766Z,3.62
2017-05-09T13:15:19.065Z,3.58
2017-05-09T13:17:47.943Z,3.88
2017-05-09T13:20:16.654Z,3.34
2017-05-09T13:22:44.947Z,4.00
2017-05-09T13:25:12.867Z,3.06
2017-05-09T13:27:42.650Z,4.08
2017-05-09T13:30:10.567Z,3.18
2017-05-09T13:32:39.228Z,3.56
2017-05-09T13:35:07.577Z,3.34
2017-05-09T13:37:35.870Z,3.02
2017-05-09T13:40:04.171Z,4.52
2017-05-09T13:42:33.447Z,3.36
2017-05-09T13:45:02.322Z,3.20
2017-05-09T13:47:31.195Z,2.80
2017-05-09T13:50:00.669Z,3.10
2017-05-09T13:52:28.598Z,3.88
2017-05-09T13:54:56.522Z,5.04
2017-05-09T13:57:24.887Z,3.48
2017-05-09T13:59:53.922Z,3.12
2017-05-09T14:02:21.876Z,3.88
2017-05-09T14:04:50.649Z,4.00
2017-05-09T14:07:19.728Z,3.20
2017-05-09T14:09:48.780Z,4.08
2017-05-09T14:12:17.157Z,3.30
2017-05-09T14:14:45.456Z,3.28
2017-05-09T14:17:13.751Z,3.68
2017-05-09T14:19:42.094Z,3.22
2017-05-09T14:22:11.139Z,3.18
2017-05-09T14:24:39.072Z,3.48
2017-05-09T14:27:07.786Z,3.82
2017-05-09T14:29:36.082Z,3.26
2017-05-09T14:32:04.013Z,3.16
2017-05-09T14:34:32.790Z,3.42
2017-05-09T14:37:00.727Z,3.32
2017-05-09T14:39:29.406Z,3.46
2017-05-09T14:41:59.058Z,4.40
2017-05-09T14:44:27.729Z,4.72
2017-05-09T14:46:56.059Z,3.78
2017-05-09T14:49:24.801Z,4.14
2017-05-09T14:51:53.722Z,4.20
2017-05-09T14:54:22.415Z,3.46
2017-05-09T14:56:50.425Z,3.68
2017-05-09T14:59:18.381Z,3.98
2017-05-09T15:01:47.062Z,5.74
2017-05-09T15:04:15.051Z,4.58
2017-05-09T15:06:42.980Z,4.36
2017-05-09T15:09:11.651Z,5.30
2017-05-09T15:11:39.997Z,5.06
2017-05-09T15:14:07.931Z,4.54
2017-05-09T15:16:35.859Z,5.56
2017-05-09T15:19:04.850Z,4.36
2017-05-09T15:21:33.518Z,4.56
2017-05-09T15:24:01.447Z,4.88
2017-05-09T15:26:30.554Z,3.30
2017-05-09T15:28:59.442Z,3.78
2017-05-09T15:31:27.743Z,3.72
2017-05-09T15:33:56.150Z,2.94
2017-05-09T15:36:24.127Z,10.74
2017-05-09T15:38:52.466Z,12.50
2017-05-09T15:41:21.088Z,9.86
2017-05-09T15:43:49.413Z,5.92
2017-05-09T15:46:17.749Z,3.54
2017-05-09T15:48:46.528Z,3.40
2017-05-09T15:51:14.851Z,4.18
2017-05-09T15:53:43.743Z,3.32
2017-05-09T15:56:13.004Z,4.20
2017-05-09T15:58:41.325Z,3.50
2017-05-09T16:01:09.264Z,3.42
2017-05-09T16:03:38.215Z,3.12
2017-05-09T16:06:06.616Z,4.12
2017-05-09T16:08:35.666Z,2.72
2017-05-09T16:11:04.048Z,3.58
2017-05-09T16:13:32.930Z,4.40
2017-05-09T16:16:00.859Z,3.10
2017-05-09T16:18:29.229Z,3.56
2017-05-09T16:20:58.278Z,3.56
2017-05-09T16:23:26.594Z,3.54
2017-05-09T16:25:54.967Z,3.96
2017-05-09T16:28:22.931Z,4.50
2017-05-09T16:30:51.340Z,3.76
2017-05-09T16:33:19.716Z,3.70
2017-05-09T16:35:48.467Z,3.72
2017-05-09T16:38:16.780Z,3.22
2017-05-09T16:40:45.420Z,3.82
2017-05-09T16:43:13.407Z,4.20
2017-05-09T16:45:41.343Z,4.14
2017-05-09T16:48:09.811Z,5.02
2017-05-09T16:50:38.125Z,4.34
2017-05-09T16:53:06.422Z,3.52
2017-05-09T16:55:35.372Z,3.86
2017-05-09T16:58:03.680Z,3.74
2017-05-09T17:00:31.991Z,4.26
2017-05-09T17:03:00.391Z,4.92
2017-05-09T17:05:28.371Z,4.00
2017-05-09T17:07:56.693Z,4.20
2017-05-09T17:10:25.662Z,3.44
2017-05-09T17:12:54.109Z,3.32
2017-05-09T17:15:22.449Z,4.34
2017-05-09T17:17:50.848Z,3.92
2017-05-09T17:20:19.176Z,4.04
2017-05-09T17:22:47.123Z,3.38
2017-05-09T17:25:15.214Z,4.14
2017-05-09T17:27:44.100Z,4.42
2017-05-09T17:30:12.980Z,4.38
2017-05-09T17:32:41.519Z,4.10
2017-05-09T17:35:09.464Z,3.70
2017-05-09T17:37:37.387Z,3.86
2017-05-09T17:40:06.035Z,4.02
2017-05-09T17:42:34.704Z,4.00
2017-05-09T17:45:03.019Z,4.24
2017-05-09T17:47:31.635Z,3.58
2017-05-09T17:50:00.675Z,3.26
2017-05-09T17:52:28.986Z,4.56
2017-05-09T17:54:58.478Z,3.64
2017-05-09T17:57:26.415Z,3.26
2017-05-09T17:59:54.720Z,3.48
2017-05-09T18:02:22.728Z,3.64
2017-05-09T18:04:51.039Z,3.36
2017-05-09T18:07:18.984Z,3.68
2017-05-09T18:09:46.970Z,3.64
2017-05-09T18:12:15.275Z,4.20
2017-05-09T18:14:43.211Z,3.92
2017-05-09T18:17:11.563Z,3.88
2017-05-09T18:19:40.238Z,4.36
2017-05-09T18:22:08.543Z,2.92
2017-05-09T18:24:36.941Z,3.42
2017-05-09T18:27:05.830Z,3.32
2017-05-09T18:29:34.122Z,3.82
2017-05-09T18:32:03.258Z,3.82
2017-05-09T18:34:32.142Z,3.50
2017-05-09T18:37:01.027Z,3.02
2017-05-09T18:39:29.373Z,3.94
2017-05-09T18:41:58.423Z,3.44
2017-05-09T18:44:27.317Z,2.92
2017-05-09T18:46:56.475Z,3.38
2017-05-09T18:49:24.813Z,2.98
2017-05-09T18:51:54.325Z,3.16
2017-05-09T18:54:23.023Z,3.40
2017-05-09T18:56:51.035Z,2.98
2017-05-09T18:59:19.794Z,3.66
2017-05-09T19:01:48.172Z,3.92
2017-05-09T19:04:17.063Z,4.12
2017-05-09T19:06:45.800Z,3.80
2017-05-09T19:09:14.102Z,3.60
2017-05-09T19:11:42.431Z,3.48
2017-05-09T19:14:10.424Z,3.40
2017-05-09T19:16:38.724Z,3.50
2017-05-09T19:19:07.041Z,3.70
2017-05-09T19:21:36.415Z,3.76
2017-05-09T19:24:05.300Z,3.64
2017-05-09T19:26:34.460Z,3.76
2017-05-09T19:29:02.884Z,3.88
2017-05-09T19:31:30.818Z,3.40
2017-05-09T19:33:58.792Z,4.10
2017-05-09T19:36:26.819Z,4.02
2017-05-09T19:38:55.155Z,3.98
2017-05-09T19:41:23.120Z,3.00
2017-05-09T19:43:51.117Z,4.14
2017-05-09T19:46:19.503Z,4.36
2017-05-09T19:48:47.868Z,4.06
2017-05-09T19:51:16.975Z,4.16
2017-05-09T19:53:45.279Z,3.82
2017-05-09T19:56:14.176Z,4.30
2017-05-09T19:58:43.107Z,3.62
2017-05-09T20:01:11.887Z,4.66
2017-05-09T20:03:40.199Z,4.70
2017-05-09T20:06:09.839Z,4.84
2017-05-09T20:08:38.524Z,5.44
2017-05-09T20:11:06.459Z,4.42
2017-05-09T20:13:34.436Z,3.50
2017-05-09T20:16:02.738Z,3.80
2017-05-09T20:18:30.671Z,4.84
2017-05-09T20:21:02.487Z,4.62
2017-05-09T20:23:31.150Z,3.58
2017-05-09T20:25:59.446Z,3.62
2017-05-09T20:28:28.168Z,3.74
2017-05-09T20:30:57.055Z,4.40
2017-05-09T20:33:25.964Z,4.42
2017-05-09T20:35:54.807Z,4.22
2017-05-09T20:38:23.711Z,4.90
2017-05-09T20:40:52.784Z,5.00
2017-05-09T20:43:21.063Z,4.40
2017-05-09T20:45:50.120Z,4.52
2017-05-09T20:48:18.051Z,4.98
2017-05-09T20:50:46.391Z,5.52
2017-05-09T20:53:14.328Z,4.90
2017-05-09T20:55:42.626Z,5.28
2017-05-09T20:58:11.324Z,6.80
2017-05-09T21:00:39.623Z,5.04
2017-05-09T21:03:07.918Z,5.14
2017-05-09T21:05:37.032Z,5.62
2017-05-09T21:08:04.967Z,5.00
2017-05-09T21:10:34.026Z,5.82
2017-05-09T21:13:03.166Z,5.94
2017-05-09T21:15:31.826Z,4.66
2017-05-09T21:18:00.122Z,5.42
2017-05-09T21:20:28.458Z,5.16
2017-05-09T21:22:57.336Z,4.70
2017-05-09T21:25:25.634Z,5.42
2017-05-09T21:27:55.458Z,5.06
2017-05-09T21:30:24.188Z,5.80
2017-05-09T21:32:52.130Z,5.46
2017-05-09T21:35:20.750Z,6.82
2017-05-09T21:37:49.063Z,5.10
2017-05-09T21:40:17.366Z,5.08
2017-05-09T21:42:46.475Z,5.72
2017-05-09T21:45:14.762Z,5.84
2017-05-09T21:47:43.059Z,5.04
2017-05-09T21:50:11.018Z,5.70
2017-05-09T21:52:39.899Z,6.00
2017-05-09T21:55:08.794Z,6.12
2017-05-09T21:57:37.730Z,6.68
2017-05-09T22:00:06.027Z,6.36
2017-05-09T22:02:33.942Z,6.60
2017-05-09T22:05:02.292Z,7.12
2017-05-09T22:07:30.586Z,6.24
2017-05-09T22:09:59.477Z,6.24
2017-05-09T22:12:27.840Z,5.60
2017-05-09T22:14:56.135Z,5.82
2017-05-09T22:17:24.803Z,6.68
2017-05-09T22:19:53.746Z,7.78
2017-05-09T22:22:22.419Z,6.06
2017-05-09T22:24:50.369Z,5.98
2017-05-09T22:27:18.730Z,5.84
2017-05-09T22:29:46.675Z,6.50
2017-05-09T22:32:15.707Z,6.08
2017-05-09T22:34:44.054Z,6.70
2017-05-09T22:37:12.343Z,6.36
2017-05-09T22:39:41.230Z,5.72
2017-05-09T22:42:09.942Z,6.14
2017-05-09T22:44:38.247Z,6.16
2017-05-09T22:47:07.143Z,6.68
2017-05-09T22:49:35.491Z,6.72
2017-05-09T22:52:03.779Z,6.22
2017-05-09T22:54:31.707Z,6.84
2017-05-09T22:57:00.927Z,5.78
2017-05-09T22:59:29.960Z,5.68
2017-05-09T23:01:58.259Z,6.40
2017-05-09T23:04:27.022Z,6.26
2017-05-09T23:06:55.899Z,6.34
2017-05-09T23:09:24.935Z,5.50
2017-05-09T23:11:53.282Z,6.24
2017-05-09T23:14:21.596Z,5.88
2017-05-09T23:16:49.546Z,5.14
2017-05-09T23:19:18.549Z,6.50
2017-05-09T23:21:46.855Z,7.02
2017-05-09T23:24:15.887Z,6.78
2017-05-09T23:26:44.974Z,6.24
2017-05-09T23:29:13.853Z,5.42
2017-05-09T23:31:42.514Z,5.80
2017-05-09T23:34:10.863Z,7.04
2017-05-09T23:36:39.738Z,5.78
2017-05-09T23:39:08.043Z,5.80
2017-05-09T23:41:36.380Z,5.76
2017-05-09T23:44:05.259Z,6.06
2017-05-09T23:46:34.292Z,4.46
2017-05-09T23:49:02.622Z,6.26
2017-05-09T23:51:30.920Z,5.58
2017-05-09T23:53:59.210Z,6.00
2017-05-09T23:56:28.130Z,5.00
2017-05-09T23:58:57.166Z,5.78
